sensor_id;sensor_type;location;lat;lon;timestamp;P1;durP1;ratioP1;P2;durP2;ratioP2
43990;SDS011;29654;50.784;20.604;2023-04-06T00:01:25;13.30;;;8.85;;
43990;SDS011;29654;50.784;20.604;2023-04-06T00:06:27;30.77;;;15.48;;
43990;SDS011;29654;50.784;20.604;2023-04-06T00:11:31;45.63;;;20.77;;
43990;SDS011;29654;50.784;20.604;2023-04-06T00:16:34;16.40;;;10.35;;
43990;SDS011;29654;50.784;20.604;2023-04-06T00:21:37;13.68;;;9.80;;
43990;SDS011;29654;50.784;20.604;2023-04-06T00:26:40;13.88;;;10.40;;
43990;SDS011;29654;50.784;20.604;2023-04-06T00:31:43;14.30;;;8.65;;
43990;SDS011;29654;50.784;20.604;2023-04-06T00:36:46;12.60;;;9.07;;
43990;SDS011;29654;50.784;20.604;2023-04-06T00:41:50;12.60;;;8.50;;
43990;SDS011;29654;50.784;20.604;2023-04-06T00:46:56;13.38;;;9.13;;
43990;SDS011;29654;50.784;20.604;2023-04-06T00:51:58;11.18;;;8.30;;
43990;SDS011;29654;50.784;20.604;2023-04-06T00:57:02;12.93;;;8.73;;
43990;SDS011;29654;50.784;20.604;2023-04-06T01:02:06;12.02;;;8.38;;
43990;SDS011;29654;50.784;20.604;2023-04-06T01:07:16;11.15;;;7.97;;
43990;SDS011;29654;50.784;20.604;2023-04-06T01:12:35;9.05;;;6.75;;
43990;SDS011;29654;50.784;20.604;2023-04-06T01:17:43;9.02;;;6.70;;
43990;SDS011;29654;50.784;20.604;2023-04-06T01:22:51;6.43;;;4.95;;
43990;SDS011;29654;50.784;20.604;2023-04-06T01:27:54;10.63;;;7.05;;
43990;SDS011;29654;50.784;20.604;2023-04-06T01:33:23;9.65;;;6.93;;
43990;SDS011;29654;50.784;20.604;2023-04-06T01:38:40;9.45;;;7.18;;
43990;SDS011;29654;50.784;20.604;2023-04-06T01:43:43;8.98;;;6.75;;
43990;SDS011;29654;50.784;20.604;2023-04-06T01:48:47;10.02;;;6.82;;
43990;SDS011;29654;50.784;20.604;2023-04-06T01:53:57;12.32;;;7.78;;
43990;SDS011;29654;50.784;20.604;2023-04-06T01:59:19;12.77;;;9.30;;
43990;SDS011;29654;50.784;20.604;2023-04-06T02:04:22;13.68;;;8.23;;
43990;SDS011;29654;50.784;20.604;2023-04-06T02:09:32;11.90;;;8.35;;
43990;SDS011;29654;50.784;20.604;2023-04-06T02:14:36;12.38;;;8.05;;
43990;SDS011;29654;50.784;20.604;2023-04-06T02:19:39;9.15;;;6.85;;
43990;SDS011;29654;50.784;20.604;2023-04-06T02:24:43;9.55;;;6.95;;
43990;SDS011;29654;50.784;20.604;2023-04-06T02:29:46;12.70;;;7.78;;
43990;SDS011;29654;50.784;20.604;2023-04-06T02:34:53;8.95;;;7.05;;
43990;SDS011;29654;50.784;20.604;2023-04-06T02:39:57;7.90;;;6.65;;
43990;SDS011;29654;50.784;20.604;2023-04-06T02:45:01;8.75;;;7.30;;
43990;SDS011;29654;50.784;20.604;2023-04-06T02:50:10;10.43;;;7.50;;
43990;SDS011;29654;50.784;20.604;2023-04-06T02:55:22;8.90;;;6.72;;
43990;SDS011;29654;50.784;20.604;2023-04-06T03:00:25;9.05;;;6.95;;
43990;SDS011;29654;50.784;20.604;2023-04-06T03:05:28;10.07;;;7.53;;
43990;SDS011;29654;50.784;20.604;2023-04-06T03:10:32;10.07;;;7.72;;
43990;SDS011;29654;50.784;20.604;2023-04-06T03:15:35;9.82;;;7.90;;
43990;SDS011;29654;50.784;20.604;2023-04-06T03:20:47;9.07;;;7.60;;
43990;SDS011;29654;50.784;20.604;2023-04-06T03:25:52;10.38;;;7.47;;
43990;SDS011;29654;50.784;20.604;2023-04-06T03:30:55;10.77;;;7.53;;
43990;SDS011;29654;50.784;20.604;2023-04-06T03:36:14;10.70;;;7.78;;
43990;SDS011;29654;50.784;20.604;2023-04-06T03:41:19;10.77;;;7.53;;
43990;SDS011;29654;50.784;20.604;2023-04-06T03:46:37;12.43;;;8.40;;
43990;SDS011;29654;50.784;20.604;2023-04-06T03:51:40;13.18;;;7.97;;
43990;SDS011;29654;50.784;20.604;2023-04-06T03:56:44;16.30;;;9.65;;
43990;SDS011;29654;50.784;20.604;2023-04-06T04:01:46;14.23;;;10.23;;
43990;SDS011;29654;50.784;20.604;2023-04-06T04:06:49;11.00;;;8.52;;
43990;SDS011;29654;50.784;20.604;2023-04-06T04:11:53;13.60;;;8.80;;
43990;SDS011;29654;50.784;20.604;2023-04-06T04:16:55;14.73;;;8.63;;
43990;SDS011;29654;50.784;20.604;2023-04-06T04:21:58;14.23;;;9.27;;
43990;SDS011;29654;50.784;20.604;2023-04-06T04:27:08;15.82;;;9.52;;
43990;SDS011;29654;50.784;20.604;2023-04-06T04:32:12;12.02;;;9.02;;
43990;SDS011;29654;50.784;20.604;2023-04-06T04:37:15;16.00;;;9.20;;
43990;SDS011;29654;50.784;20.604;2023-04-06T04:42:26;12.93;;;8.82;;
43990;SDS011;29654;50.784;20.604;2023-04-06T04:47:32;12.00;;;8.75;;
43990;SDS011;29654;50.784;20.604;2023-04-06T04:52:34;11.90;;;8.13;;
43990;SDS011;29654;50.784;20.604;2023-04-06T04:57:50;13.65;;;9.38;;
43990;SDS011;29654;50.784;20.604;2023-04-06T05:02:57;15.75;;;10.23;;
43990;SDS011;29654;50.784;20.604;2023-04-06T05:08:03;16.20;;;10.40;;
43990;SDS011;29654;50.784;20.604;2023-04-06T05:13:17;13.88;;;9.70;;
43990;SDS011;29654;50.784;20.604;2023-04-06T05:18:22;13.93;;;9.75;;
43990;SDS011;29654;50.784;20.604;2023-04-06T05:23:25;14.70;;;9.52;;
43990;SDS011;29654;50.784;20.604;2023-04-06T05:28:29;16.48;;;10.43;;
43990;SDS011;29654;50.784;20.604;2023-04-06T05:33:33;16.17;;;10.40;;
43990;SDS011;29654;50.784;20.604;2023-04-06T05:38:45;15.55;;;10.88;;
43990;SDS011;29654;50.784;20.604;2023-04-06T05:44:09;14.68;;;9.10;;
43990;SDS011;29654;50.784;20.604;2023-04-06T05:49:14;15.13;;;10.68;;
43990;SDS011;29654;50.784;20.604;2023-04-06T05:54:17;15.07;;;10.73;;
43990;SDS011;29654;50.784;20.604;2023-04-06T05:59:22;17.35;;;12.13;;
43990;SDS011;29654;50.784;20.604;2023-04-06T06:04:25;17.30;;;11.15;;
43990;SDS011;29654;50.784;20.604;2023-04-06T06:09:29;12.95;;;9.25;;
43990;SDS011;29654;50.784;20.604;2023-04-06T06:14:50;14.88;;;10.23;;
43990;SDS011;29654;50.784;20.604;2023-04-06T06:19:54;16.83;;;11.48;;
43990;SDS011;29654;50.784;20.604;2023-04-06T06:24:56;17.75;;;10.95;;
43990;SDS011;29654;50.784;20.604;2023-04-06T06:30:01;17.15;;;12.00;;
43990;SDS011;29654;50.784;20.604;2023-04-06T06:35:06;17.90;;;11.82;;
43990;SDS011;29654;50.784;20.604;2023-04-06T06:40:10;13.68;;;9.35;;
43990;SDS011;29654;50.784;20.604;2023-04-06T06:45:17;11.73;;;7.97;;
43990;SDS011;29654;50.784;20.604;2023-04-06T06:50:21;11.27;;;8.07;;
43990;SDS011;29654;50.784;20.604;2023-04-06T06:55:23;13.00;;;8.68;;
43990;SDS011;29654;50.784;20.604;2023-04-06T07:00:28;14.00;;;9.00;;
43990;SDS011;29654;50.784;20.604;2023-04-06T07:05:31;11.07;;;7.72;;
43990;SDS011;29654;50.784;20.604;2023-04-06T07:10:34;8.98;;;6.43;;
43990;SDS011;29654;50.784;20.604;2023-04-06T07:15:38;10.02;;;7.68;;
43990;SDS011;29654;50.784;20.604;2023-04-06T07:20:41;10.40;;;7.32;;
43990;SDS011;29654;50.784;20.604;2023-04-06T07:25:43;10.90;;;7.13;;
43990;SDS011;29654;50.784;20.604;2023-04-06T07:30:48;9.27;;;7.68;;
43990;SDS011;29654;50.784;20.604;2023-04-06T07:35:51;9.65;;;6.57;;
43990;SDS011;29654;50.784;20.604;2023-04-06T07:40:54;9.13;;;6.18;;
43990;SDS011;29654;50.784;20.604;2023-04-06T07:45:58;7.78;;;5.00;;
43990;SDS011;29654;50.784;20.604;2023-04-06T07:51:01;10.18;;;6.85;;
43990;SDS011;29654;50.784;20.604;2023-04-06T07:56:08;11.05;;;7.40;;
43990;SDS011;29654;50.784;20.604;2023-04-06T08:01:13;5.88;;;4.75;;
43990;SDS011;29654;50.784;20.604;2023-04-06T08:06:16;7.93;;;5.55;;
43990;SDS011;29654;50.784;20.604;2023-04-06T08:11:19;6.88;;;5.35;;
43990;SDS011;29654;50.784;20.604;2023-04-06T08:16:23;9.43;;;5.43;;
43990;SDS011;29654;50.784;20.604;2023-04-06T08:21:25;5.82;;;4.88;;
43990;SDS011;29654;50.784;20.604;2023-04-06T08:26:28;6.45;;;4.22;;
43990;SDS011;29654;50.784;20.604;2023-04-06T08:31:32;7.65;;;5.43;;
43990;SDS011;29654;50.784;20.604;2023-04-06T08:36:34;7.25;;;5.22;;
43990;SDS011;29654;50.784;20.604;2023-04-06T08:41:37;5.40;;;4.50;;
43990;SDS011;29654;50.784;20.604;2023-04-06T08:46:41;6.57;;;4.05;;
43990;SDS011;29654;50.784;20.604;2023-04-06T08:51:44;5.15;;;3.75;;
43990;SDS011;29654;50.784;20.604;2023-04-06T08:56:47;4.55;;;3.45;;
43990;SDS011;29654;50.784;20.604;2023-04-06T09:01:52;4.72;;;3.53;;
43990;SDS011;29654;50.784;20.604;2023-04-06T09:06:56;4.32;;;3.70;;
43990;SDS011;29654;50.784;20.604;2023-04-06T09:11:58;4.93;;;3.45;;
43990;SDS011;29654;50.784;20.604;2023-04-06T09:17:07;5.25;;;3.55;;
43990;SDS011;29654;50.784;20.604;2023-04-06T09:22:10;5.03;;;3.90;;
43990;SDS011;29654;50.784;20.604;2023-04-06T09:27:13;5.38;;;4.13;;
43990;SDS011;29654;50.784;20.604;2023-04-06T09:32:17;6.50;;;3.95;;
43990;SDS011;29654;50.784;20.604;2023-04-06T09:37:20;8.98;;;5.05;;
43990;SDS011;29654;50.784;20.604;2023-04-06T09:42:23;13.85;;;7.20;;
43990;SDS011;29654;50.784;20.604;2023-04-06T09:47:28;7.90;;;4.75;;
43990;SDS011;29654;50.784;20.604;2023-04-06T09:52:33;7.88;;;5.03;;
43990;SDS011;29654;50.784;20.604;2023-04-06T09:57:44;7.60;;;4.82;;
43990;SDS011;29654;50.784;20.604;2023-04-06T10:02:55;9.82;;;5.93;;
43990;SDS011;29654;50.784;20.604;2023-04-06T10:08:02;9.82;;;5.78;;
43990;SDS011;29654;50.784;20.604;2023-04-06T10:13:09;8.30;;;5.40;;
43990;SDS011;29654;50.784;20.604;2023-04-06T10:18:14;9.65;;;5.82;;
43990;SDS011;29654;50.784;20.604;2023-04-06T10:23:19;7.82;;;5.93;;
43990;SDS011;29654;50.784;20.604;2023-04-06T10:28:30;8.65;;;6.40;;
43990;SDS011;29654;50.784;20.604;2023-04-06T10:33:37;6.88;;;5.35;;
43990;SDS011;29654;50.784;20.604;2023-04-06T10:38:41;9.13;;;6.70;;
43990;SDS011;29654;50.784;20.604;2023-04-06T10:43:44;11.52;;;7.10;;
43990;SDS011;29654;50.784;20.604;2023-04-06T10:48:48;7.82;;;4.85;;
43990;SDS011;29654;50.784;20.604;2023-04-06T10:53:50;13.40;;;6.80;;
43990;SDS011;29654;50.784;20.604;2023-04-06T10:58:56;8.50;;;6.25;;
43990;SDS011;29654;50.784;20.604;2023-04-06T11:04:00;7.28;;;6.07;;
43990;SDS011;29654;50.784;20.604;2023-04-06T11:09:02;8.52;;;5.30;;
43990;SDS011;29654;50.784;20.604;2023-04-06T11:14:05;6.88;;;4.63;;
43990;SDS011;29654;50.784;20.604;2023-04-06T11:19:12;7.03;;;5.70;;
43990;SDS011;29654;50.784;20.604;2023-04-06T11:24:16;8.40;;;5.80;;
43990;SDS011;29654;50.784;20.604;2023-04-06T11:29:20;8.90;;;6.45;;
43990;SDS011;29654;50.784;20.604;2023-04-06T11:34:25;9.35;;;6.15;;
43990;SDS011;29654;50.784;20.604;2023-04-06T11:39:30;8.38;;;5.70;;
43990;SDS011;29654;50.784;20.604;2023-04-06T11:44:34;7.07;;;5.90;;
43990;SDS011;29654;50.784;20.604;2023-04-06T11:49:41;10.70;;;6.85;;
43990;SDS011;29654;50.784;20.604;2023-04-06T11:54:46;8.65;;;6.15;;
43990;SDS011;29654;50.784;20.604;2023-04-06T11:59:50;8.40;;;6.75;;
43990;SDS011;29654;50.784;20.604;2023-04-06T12:04:54;7.50;;;6.18;;
43990;SDS011;29654;50.784;20.604;2023-04-06T12:09:57;5.90;;;4.78;;
43990;SDS011;29654;50.784;20.604;2023-04-06T12:15:00;7.28;;;5.68;;
43990;SDS011;29654;50.784;20.604;2023-04-06T12:20:05;8.57;;;5.70;;
43990;SDS011;29654;50.784;20.604;2023-04-06T12:25:08;6.43;;;4.55;;
43990;SDS011;29654;50.784;20.604;2023-04-06T12:30:12;7.38;;;5.93;;
43990;SDS011;29654;50.784;20.604;2023-04-06T12:35:17;6.00;;;5.20;;
43990;SDS011;29654;50.784;20.604;2023-04-06T12:40:20;4.93;;;4.50;;
43990;SDS011;29654;50.784;20.604;2023-04-06T12:45:22;6.35;;;5.60;;
43990;SDS011;29654;50.784;20.604;2023-04-06T12:50:26;7.10;;;5.80;;
43990;SDS011;29654;50.784;20.604;2023-04-06T12:55:29;5.32;;;4.82;;
43990;SDS011;29654;50.784;20.604;2023-04-06T13:00:34;6.50;;;5.60;;
43990;SDS011;29654;50.784;20.604;2023-04-06T13:05:39;9.43;;;7.68;;
43990;SDS011;29654;50.784;20.604;2023-04-06T13:10:46;9.43;;;7.10;;
43990;SDS011;29654;50.784;20.604;2023-04-06T13:15:51;6.10;;;5.50;;
43990;SDS011;29654;50.784;20.604;2023-04-06T13:20:55;8.48;;;6.50;;
43990;SDS011;29654;50.784;20.604;2023-04-06T13:25:59;7.20;;;5.57;;
43990;SDS011;29654;50.784;20.604;2023-04-06T13:31:03;6.25;;;4.97;;
43990;SDS011;29654;50.784;20.604;2023-04-06T13:36:08;6.53;;;5.80;;
43990;SDS011;29654;50.784;20.604;2023-04-06T13:41:16;9.52;;;6.65;;
43990;SDS011;29654;50.784;20.604;2023-04-06T13:46:22;5.72;;;5.15;;
43990;SDS011;29654;50.784;20.604;2023-04-06T13:51:26;5.78;;;5.20;;
43990;SDS011;29654;50.784;20.604;2023-04-06T13:56:29;8.00;;;6.18;;
43990;SDS011;29654;50.784;20.604;2023-04-06T14:01:32;8.70;;;6.85;;
43990;SDS011;29654;50.784;20.604;2023-04-06T14:06:36;11.68;;;8.82;;
43990;SDS011;29654;50.784;20.604;2023-04-06T14:11:39;9.95;;;8.52;;
43990;SDS011;29654;50.784;20.604;2023-04-06T14:16:42;7.88;;;6.55;;
43990;SDS011;29654;50.784;20.604;2023-04-06T14:21:47;7.85;;;6.85;;
43990;SDS011;29654;50.784;20.604;2023-04-06T14:26:49;8.52;;;6.40;;
43990;SDS011;29654;50.784;20.604;2023-04-06T14:31:52;7.53;;;5.38;;
43990;SDS011;29654;50.784;20.604;2023-04-06T14:37:01;6.63;;;6.03;;
43990;SDS011;29654;50.784;20.604;2023-04-06T14:42:03;6.68;;;6.07;;
43990;SDS011;29654;50.784;20.604;2023-04-06T14:47:06;6.90;;;5.80;;
43990;SDS011;29654;50.784;20.604;2023-04-06T14:52:10;6.50;;;5.88;;
43990;SDS011;29654;50.784;20.604;2023-04-06T14:57:12;7.07;;;5.45;;
43990;SDS011;29654;50.784;20.604;2023-04-06T15:02:15;7.05;;;5.47;;
43990;SDS011;29654;50.784;20.604;2023-04-06T15:07:19;7.78;;;6.97;;
43990;SDS011;29654;50.784;20.604;2023-04-06T15:12:21;6.60;;;6.00;;
43990;SDS011;29654;50.784;20.604;2023-04-06T15:17:24;7.38;;;6.68;;
43990;SDS011;29654;50.784;20.604;2023-04-06T15:22:28;8.20;;;7.32;;
43990;SDS011;29654;50.784;20.604;2023-04-06T15:27:31;8.75;;;7.85;;
43990;SDS011;29654;50.784;20.604;2023-04-06T15:32:33;8.05;;;7.25;;
43990;SDS011;29654;50.784;20.604;2023-04-06T15:37:37;8.98;;;7.10;;
43990;SDS011;29654;50.784;20.604;2023-04-06T15:42:40;11.75;;;9.68;;
43990;SDS011;29654;50.784;20.604;2023-04-06T15:47:43;6.93;;;6.22;;
43990;SDS011;29654;50.784;20.604;2023-04-06T15:52:48;6.93;;;6.22;;
43990;SDS011;29654;50.784;20.604;2023-04-06T15:57:51;7.80;;;6.28;;
43990;SDS011;29654;50.784;20.604;2023-04-06T16:02:53;7.25;;;6.55;;
43990;SDS011;29654;50.784;20.604;2023-04-06T16:07:58;7.20;;;5.97;;
43990;SDS011;29654;50.784;20.604;2023-04-06T16:13:01;12.30;;;9.68;;
43990;SDS011;29654;50.784;20.604;2023-04-06T16:18:03;12.20;;;9.60;;
43990;SDS011;29654;50.784;20.604;2023-04-06T16:23:08;9.77;;;8.75;;
43990;SDS011;29654;50.784;20.604;2023-04-06T16:28:11;11.07;;;9.05;;
43990;SDS011;29654;50.784;20.604;2023-04-06T16:33:14;12.55;;;10.38;;
43990;SDS011;29654;50.784;20.604;2023-04-06T16:38:19;20.65;;;14.25;;
43990;SDS011;29654;50.784;20.604;2023-04-06T16:43:23;12.63;;;10.85;;
43990;SDS011;29654;50.784;20.604;2023-04-06T16:48:26;9.40;;;8.25;;
43990;SDS011;29654;50.784;20.604;2023-04-06T16:53:30;7.38;;;6.68;;
43990;SDS011;29654;50.784;20.604;2023-04-06T16:58:33;12.18;;;10.43;;
43990;SDS011;29654;50.784;20.604;2023-04-06T17:03:37;8.65;;;7.60;;
43990;SDS011;29654;50.784;20.604;2023-04-06T17:08:41;10.15;;;8.80;;
43990;SDS011;29654;50.784;20.604;2023-04-06T17:13:46;13.18;;;10.18;;
43990;SDS011;29654;50.784;20.604;2023-04-06T17:18:50;14.73;;;11.80;;
43990;SDS011;29654;50.784;20.604;2023-04-06T17:23:54;12.00;;;9.95;;
43990;SDS011;29654;50.784;20.604;2023-04-06T17:28:56;11.32;;;9.77;;
43990;SDS011;29654;50.784;20.604;2023-04-06T17:33:59;15.27;;;11.73;;
43990;SDS011;29654;50.784;20.604;2023-04-06T17:39:03;11.52;;;9.55;;
43990;SDS011;29654;50.784;20.604;2023-04-06T17:44:06;14.63;;;11.88;;
43990;SDS011;29654;50.784;20.604;2023-04-06T17:49:08;12.88;;;10.32;;
43990;SDS011;29654;50.784;20.604;2023-04-06T17:54:13;14.98;;;9.77;;
43990;SDS011;29654;50.784;20.604;2023-04-06T17:59:16;14.27;;;10.60;;
43990;SDS011;29654;50.784;20.604;2023-04-06T18:04:19;12.70;;;9.48;;
43990;SDS011;29654;50.784;20.604;2023-04-06T18:09:23;13.95;;;11.23;;
43990;SDS011;29654;50.784;20.604;2023-04-06T18:14:25;15.15;;;11.57;;
43990;SDS011;29654;50.784;20.604;2023-04-06T18:19:30;12.88;;;9.68;;
43990;SDS011;29654;50.784;20.604;2023-04-06T18:24:35;10.32;;;8.18;;
43990;SDS011;29654;50.784;20.604;2023-04-06T18:29:38;11.43;;;9.50;;
43990;SDS011;29654;50.784;20.604;2023-04-06T18:34:43;11.77;;;9.20;;
43990;SDS011;29654;50.784;20.604;2023-04-06T18:39:47;14.80;;;10.23;;
43990;SDS011;29654;50.784;20.604;2023-04-06T18:44:49;11.93;;;9.68;;
43990;SDS011;29654;50.784;20.604;2023-04-06T18:49:52;10.65;;;9.30;;
43990;SDS011;29654;50.784;20.604;2023-04-06T18:54:58;11.60;;;9.82;;
43990;SDS011;29654;50.784;20.604;2023-04-06T19:00:02;9.75;;;8.75;;
43990;SDS011;29654;50.784;20.604;2023-04-06T19:05:07;12.32;;;9.52;;
43990;SDS011;29654;50.784;20.604;2023-04-06T19:10:12;9.77;;;8.05;;
43990;SDS011;29654;50.784;20.604;2023-04-06T19:15:15;13.95;;;9.35;;
43990;SDS011;29654;50.784;20.604;2023-04-06T19:20:17;12.07;;;8.30;;
43990;SDS011;29654;50.784;20.604;2023-04-06T19:25:22;14.20;;;10.48;;
43990;SDS011;29654;50.784;20.604;2023-04-06T19:30:24;10.18;;;9.07;;
43990;SDS011;29654;50.784;20.604;2023-04-06T19:35:27;12.80;;;11.02;;
43990;SDS011;29654;50.784;20.604;2023-04-06T19:40:31;10.43;;;9.40;;
43990;SDS011;29654;50.784;20.604;2023-04-06T19:45:34;12.82;;;11.05;;
43990;SDS011;29654;50.784;20.604;2023-04-06T19:50:36;11.95;;;10.75;;
43990;SDS011;29654;50.784;20.604;2023-04-06T19:55:40;9.88;;;7.78;;
43990;SDS011;29654;50.784;20.604;2023-04-06T20:00:43;9.02;;;8.10;;
43990;SDS011;29654;50.784;20.604;2023-04-06T20:05:45;9.57;;;7.07;;
43990;SDS011;29654;50.784;20.604;2023-04-06T20:10:49;12.82;;;11.02;;
43990;SDS011;29654;50.784;20.604;2023-04-06T20:15:52;7.82;;;7.13;;
43990;SDS011;29654;50.784;20.604;2023-04-06T20:20:55;7.93;;;7.18;;
43990;SDS011;29654;50.784;20.604;2023-04-06T20:25:59;9.07;;;7.75;;
43990;SDS011;29654;50.784;20.604;2023-04-06T20:31:01;9.85;;;7.72;;
43990;SDS011;29654;50.784;20.604;2023-04-06T20:36:05;8.73;;;7.93;;
43990;SDS011;29654;50.784;20.604;2023-04-06T20:41:09;8.70;;;7.80;;
43990;SDS011;29654;50.784;20.604;2023-04-06T20:46:13;8.55;;;7.72;;
43990;SDS011;29654;50.784;20.604;2023-04-06T20:51:17;7.95;;;7.25;;
43990;SDS011;29654;50.784;20.604;2023-04-06T20:56:23;7.95;;;7.18;;
43990;SDS011;29654;50.784;20.604;2023-04-06T21:01:26;8.00;;;7.30;;
43990;SDS011;29654;50.784;20.604;2023-04-06T21:06:29;7.93;;;7.05;;
43990;SDS011;29654;50.784;20.604;2023-04-06T21:11:33;8.40;;;7.50;;
43990;SDS011;29654;50.784;20.604;2023-04-06T21:16:36;7.65;;;6.95;;
43990;SDS011;29654;50.784;20.604;2023-04-06T21:21:39;12.10;;;8.98;;
43990;SDS011;29654;50.784;20.604;2023-04-06T21:26:43;6.22;;;5.63;;
43990;SDS011;29654;50.784;20.604;2023-04-06T21:31:46;7.15;;;6.45;;
43990;SDS011;29654;50.784;20.604;2023-04-06T21:36:48;7.72;;;6.25;;
43990;SDS011;29654;50.784;20.604;2023-04-06T21:41:52;7.32;;;6.18;;
43990;SDS011;29654;50.784;20.604;2023-04-06T21:46:55;9.52;;;7.57;;
43990;SDS011;29654;50.784;20.604;2023-04-06T21:51:58;6.85;;;6.15;;
43990;SDS011;29654;50.784;20.604;2023-04-06T21:57:02;8.25;;;7.18;;
43990;SDS011;29654;50.784;20.604;2023-04-06T22:02:04;7.05;;;6.30;;
43990;SDS011;29654;50.784;20.604;2023-04-06T22:07:07;9.13;;;6.72;;
43990;SDS011;29654;50.784;20.604;2023-04-06T22:12:12;6.60;;;5.28;;
43990;SDS011;29654;50.784;20.604;2023-04-06T22:17:14;7.28;;;6.22;;
43990;SDS011;29654;50.784;20.604;2023-04-06T22:22:17;7.07;;;6.38;;
43990;SDS011;29654;50.784;20.604;2023-04-06T22:27:21;8.73;;;6.90;;
43990;SDS011;29654;50.784;20.604;2023-04-06T22:32:23;6.38;;;5.78;;
43990;SDS011;29654;50.784;20.604;2023-04-06T22:37:26;7.60;;;6.28;;
43990;SDS011;29654;50.784;20.604;2023-04-06T22:42:30;8.23;;;7.30;;
43990;SDS011;29654;50.784;20.604;2023-04-06T22:47:32;8.68;;;6.95;;
43990;SDS011;29654;50.784;20.604;2023-04-06T22:52:35;9.52;;;7.22;;
43990;SDS011;29654;50.784;20.604;2023-04-06T22:57:39;8.07;;;7.28;;
43990;SDS011;29654;50.784;20.604;2023-04-06T23:02:42;7.85;;;7.05;;
43990;SDS011;29654;50.784;20.604;2023-04-06T23:07:44;7.57;;;6.88;;
43990;SDS011;29654;50.784;20.604;2023-04-06T23:12:48;7.90;;;6.72;;
43990;SDS011;29654;50.784;20.604;2023-04-06T23:17:51;8.68;;;7.15;;
43990;SDS011;29654;50.784;20.604;2023-04-06T23:22:53;8.38;;;6.75;;
43990;SDS011;29654;50.784;20.604;2023-04-06T23:27:58;9.43;;;8.10;;
43990;SDS011;29654;50.784;20.604;2023-04-06T23:33:00;13.25;;;9.30;;
43990;SDS011;29654;50.784;20.604;2023-04-06T23:38:03;10.32;;;8.70;;
43990;SDS011;29654;50.784;20.604;2023-04-06T23:43:07;11.43;;;9.70;;
43990;SDS011;29654;50.784;20.604;2023-04-06T23:48:10;10.50;;;9.00;;
43990;SDS011;29654;50.784;20.604;2023-04-06T23:53:12;10.15;;;8.50;;
43990;SDS011;29654;50.784;20.604;2023-04-06T23:58:16;8.85;;;7.57;;
